sensor_id;sensor_type;location;lat;lon;timestamp;P1;durP1;ratioP1;P2;durP2;ratioP2
38909;SDS011;24676;51.360;12.354;2022-10-16T04:00:55;0.30;;;0.30;;
38909;SDS011;24676;51.360;12.354;2022-10-16T04:03:39;0.20;;;0.20;;
38909;SDS011;24676;51.360;12.354;2022-10-16T04:06:23;0.17;;;0.10;;
38909;SDS011;24676;51.360;12.354;2022-10-16T04:09:07;1.40;;;0.22;;
38909;SDS011;24676;51.360;12.354;2022-10-16T04:11:51;0.55;;;0.55;;
38909;SDS011;24676;51.360;12.354;2022-10-16T04:14:35;0.30;;;0.30;;
38909;SDS011;24676;51.360;12.354;2022-10-16T04:17:20;0.10;;;0.10;;
38909;SDS011;24676;51.360;12.354;2022-10-16T04:20:04;0.20;;;0.20;;
38909;SDS011;24676;51.360;12.354;2022-10-16T04:22:49;0.70;;;0.50;;
38909;SDS011;24676;51.360;12.354;2022-10-16T04:25:33;0.05;;;0.03;;
38909;SDS011;24676;51.360;12.354;2022-10-16T04:28:17;0.20;;;0.20;;
38909;SDS011;24676;51.360;12.354;2022-10-16T04:31:05;0.40;;;0.40;;
38909;SDS011;24676;51.360;12.354;2022-10-16T04:33:49;0.25;;;0.25;;
38909;SDS011;24676;51.360;12.354;2022-10-16T04:36:33;0.45;;;0.43;;
38909;SDS011;24676;51.360;12.354;2022-10-16T04:39:18;0.50;;;0.15;;
38909;SDS011;24676;51.360;12.354;2022-10-16T04:42:02;0.35;;;0.35;;
38909;SDS011;24676;51.360;12.354;2022-10-16T04:44:46;0.15;;;0.15;;
38909;SDS011;24676;51.360;12.354;2022-10-16T04:47:31;2.20;;;0.20;;
38909;SDS011;24676;51.360;12.354;2022-10-16T04:50:15;0.38;;;0.10;;
38909;SDS011;24676;51.360;12.354;2022-10-16T04:52:59;0.65;;;0.65;;
38909;SDS011;24676;51.360;12.354;2022-10-16T04:55:43;0.22;;;0.22;;
38909;SDS011;24676;51.360;12.354;2022-10-16T04:58:27;0.52;;;0.30;;
38909;SDS011;24676;51.360;12.354;2022-10-16T05:01:11;0.30;;;0.30;;
38909;SDS011;24676;51.360;12.354;2022-10-16T05:03:56;0.70;;;0.47;;
38909;SDS011;24676;51.360;12.354;2022-10-16T05:06:40;1.75;;;0.28;;
38909;SDS011;24676;51.360;12.354;2022-10-16T05:09:25;0.20;;;0.20;;
38909;SDS011;24676;51.360;12.354;2022-10-16T05:12:09;0.08;;;0.08;;
38909;SDS011;24676;51.360;12.354;2022-10-16T05:14:53;4.40;;;0.47;;
38909;SDS011;24676;51.360;12.354;2022-10-16T05:17:42;0.20;;;0.20;;
38909;SDS011;24676;51.360;12.354;2022-10-16T05:20:26;0.22;;;0.22;;
38909;SDS011;24676;51.360;12.354;2022-10-16T05:23:11;0.13;;;0.13;;
38909;SDS011;24676;51.360;12.354;2022-10-16T05:25:55;0.70;;;0.20;;
38909;SDS011;24676;51.360;12.354;2022-10-16T05:28:41;0.25;;;0.25;;
38909;SDS011;24676;51.360;12.354;2022-10-16T05:31:26;0.20;;;0.20;;
38909;SDS011;24676;51.360;12.354;2022-10-16T05:34:10;0.55;;;0.40;;
38909;SDS011;24676;51.360;12.354;2022-10-16T05:36:54;0.05;;;0.05;;
38909;SDS011;24676;51.360;12.354;2022-10-16T05:39:38;1.08;;;0.22;;
38909;SDS011;24676;51.360;12.354;2022-10-16T05:42:23;0.15;;;0.15;;
38909;SDS011;24676;51.360;12.354;2022-10-16T05:45:08;0.52;;;0.40;;
38909;SDS011;24676;51.360;12.354;2022-10-16T05:47:54;0.20;;;0.20;;
38909;SDS011;24676;51.360;12.354;2022-10-16T05:50:38;0.10;;;0.10;;
38909;SDS011;24676;51.360;12.354;2022-10-16T05:53:22;0.10;;;0.10;;
38909;SDS011;24676;51.360;12.354;2022-10-16T05:56:09;0.17;;;0.15;;
38909;SDS011;24676;51.360;12.354;2022-10-16T05:58:56;0.65;;;0.52;;
38909;SDS011;24676;51.360;12.354;2022-10-16T06:01:39;0.25;;;0.25;;
38909;SDS011;24676;51.360;12.354;2022-10-16T06:04:24;3.40;;;0.30;;
38909;SDS011;24676;51.360;12.354;2022-10-16T06:07:08;0.20;;;0.20;;
38909;SDS011;24676;51.360;12.354;2022-10-16T06:09:52;0.75;;;0.75;;
38909;SDS011;24676;51.360;12.354;2022-10-16T06:12:37;0.25;;;0.25;;
38909;SDS011;24676;51.360;12.354;2022-10-16T06:15:21;2.63;;;2.47;;
38909;SDS011;24676;51.360;12.354;2022-10-16T06:18:06;1.38;;;0.35;;
38909;SDS011;24676;51.360;12.354;2022-10-16T06:20:50;1.67;;;0.20;;
38909;SDS011;24676;51.360;12.354;2022-10-16T06:23:34;0.15;;;0.15;;
38909;SDS011;24676;51.360;12.354;2022-10-16T06:26:20;0.45;;;0.20;;
38909;SDS011;24676;51.360;12.354;2022-10-16T06:29:05;0.55;;;0.45;;
38909;SDS011;24676;51.360;12.354;2022-10-16T06:31:49;0.17;;;0.17;;
38909;SDS011;24676;51.360;12.354;2022-10-16T06:34:33;0.35;;;0.35;;
38909;SDS011;24676;51.360;12.354;2022-10-16T06:37:17;0.77;;;0.28;;
38909;SDS011;24676;51.360;12.354;2022-10-16T06:40:01;0.22;;;0.22;;
38909;SDS011;24676;51.360;12.354;2022-10-16T06:42:47;0.40;;;0.40;;
38909;SDS011;24676;51.360;12.354;2022-10-16T06:45:32;0.20;;;0.20;;
38909;SDS011;24676;51.360;12.354;2022-10-16T06:48:16;0.20;;;0.13;;
38909;SDS011;24676;51.360;12.354;2022-10-16T06:51:08;1.00;;;0.45;;
38909;SDS011;24676;51.360;12.354;2022-10-16T06:53:54;3.58;;;0.30;;
38909;SDS011;24676;51.360;12.354;2022-10-16T06:56:42;0.20;;;0.20;;
38909;SDS011;24676;51.360;12.354;2022-10-16T06:59:26;0.10;;;0.10;;
38909;SDS011;24676;51.360;12.354;2022-10-16T07:02:11;0.30;;;0.30;;
38909;SDS011;24676;51.360;12.354;2022-10-16T07:04:55;0.45;;;0.20;;
38909;SDS011;24676;51.360;12.354;2022-10-16T07:07:40;2.63;;;0.40;;
38909;SDS011;24676;51.360;12.354;2022-10-16T07:10:25;0.20;;;0.20;;
38909;SDS011;24676;51.360;12.354;2022-10-16T07:13:09;0.40;;;0.32;;
38909;SDS011;24676;51.360;12.354;2022-10-16T07:15:56;0.20;;;0.20;;
38909;SDS011;24676;51.360;12.354;2022-10-16T07:18:40;0.40;;;0.25;;
38909;SDS011;24676;51.360;12.354;2022-10-16T07:21:27;0.98;;;0.45;;
38909;SDS011;24676;51.360;12.354;2022-10-16T07:24:14;0.30;;;0.30;;
38909;SDS011;24676;51.360;12.354;2022-10-16T07:26:59;0.52;;;0.47;;
38909;SDS011;24676;51.360;12.354;2022-10-16T07:29:44;0.20;;;0.20;;
38909;SDS011;24676;51.360;12.354;2022-10-16T07:32:28;1.83;;;0.20;;
38909;SDS011;24676;51.360;12.354;2022-10-16T07:35:13;0.32;;;0.32;;
38909;SDS011;24676;51.360;12.354;2022-10-16T07:37:57;0.30;;;0.25;;
38909;SDS011;24676;51.360;12.354;2022-10-16T07:40:41;0.10;;;0.10;;
38909;SDS011;24676;51.360;12.354;2022-10-16T07:43:26;0.65;;;0.40;;
38909;SDS011;24676;51.360;12.354;2022-10-16T07:46:11;0.35;;;0.35;;
38909;SDS011;24676;51.360;12.354;2022-10-16T07:48:55;3.08;;;0.25;;
38909;SDS011;24676;51.360;12.354;2022-10-16T07:51:39;0.10;;;0.10;;
38909;SDS011;24676;51.360;12.354;2022-10-16T07:54:23;0.20;;;0.20;;
38909;SDS011;24676;51.360;12.354;2022-10-16T07:57:07;0.55;;;0.50;;
38909;SDS011;24676;51.360;12.354;2022-10-16T07:59:51;0.35;;;0.22;;
38909;SDS011;24676;51.360;12.354;2022-10-16T08:02:35;0.20;;;0.20;;
38909;SDS011;24676;51.360;12.354;2022-10-16T08:05:20;0.47;;;0.40;;
38909;SDS011;24676;51.360;12.354;2022-10-16T08:08:04;0.28;;;0.10;;
38909;SDS011;24676;51.360;12.354;2022-10-16T08:10:49;0.65;;;0.40;;
38909;SDS011;24676;51.360;12.354;2022-10-16T08:13:33;0.85;;;0.10;;
38909;SDS011;24676;51.360;12.354;2022-10-16T08:16:17;2.50;;;0.20;;
38909;SDS011;24676;51.360;12.354;2022-10-16T08:19:02;0.80;;;0.20;;
38909;SDS011;24676;51.360;12.354;2022-10-16T08:32:44;0.00;;;0.00;;
38909;SDS011;24676;51.360;12.354;2022-10-16T08:35:29;0.03;;;0.03;;
38909;SDS011;24676;51.360;12.354;2022-10-16T08:38:13;0.00;;;0.00;;
38909;SDS011;24676;51.360;12.354;2022-10-16T08:41:01;0.10;;;0.10;;
38909;SDS011;24676;51.360;12.354;2022-10-16T08:50:00;0.10;;;0.10;;
38909;SDS011;24676;51.360;12.354;2022-10-16T08:52:52;0.10;;;0.10;;
38909;SDS011;24676;51.360;12.354;2022-10-16T08:55:49;0.28;;;0.10;;
38909;SDS011;24676;51.360;12.354;2022-10-16T08:58:35;0.10;;;0.10;;
38909;SDS011;24676;51.360;12.354;2022-10-16T09:01:20;0.20;;;0.20;;
38909;SDS011;24676;51.360;12.354;2022-10-16T09:07:09;0.17;;;0.03;;
38909;SDS011;24676;51.360;12.354;2022-10-16T09:10:08;0.20;;;0.20;;
38909;SDS011;24676;51.360;12.354;2022-10-16T09:13:16;1.25;;;0.30;;
38909;SDS011;24676;51.360;12.354;2022-10-16T09:16:13;0.00;;;0.00;;
38909;SDS011;24676;51.360;12.354;2022-10-16T09:27:21;1.95;;;0.45;;
38909;SDS011;24676;51.360;12.354;2022-10-16T09:30:13;0.13;;;0.05;;
38909;SDS011;24676;51.360;12.354;2022-10-16T09:38:32;0.20;;;0.00;;
38909;SDS011;24676;51.360;12.354;2022-10-16T09:44:05;0.10;;;0.10;;
38909;SDS011;24676;51.360;12.354;2022-10-16T10:01:05;0.10;;;0.10;;
38909;SDS011;24676;51.360;12.354;2022-10-16T10:03:50;0.00;;;0.00;;
38909;SDS011;24676;51.360;12.354;2022-10-16T10:06:37;0.20;;;0.20;;
38909;SDS011;24676;51.360;12.354;2022-10-16T10:09:27;0.30;;;0.30;;
38909;SDS011;24676;51.360;12.354;2022-10-16T10:15:12;0.20;;;0.20;;
38909;SDS011;24676;51.360;12.354;2022-10-16T10:35:34;0.30;;;0.30;;
38909;SDS011;24676;51.360;12.354;2022-10-16T10:51:01;0.32;;;0.32;;
38909;SDS011;24676;51.360;12.354;2022-10-16T10:54:14;0.20;;;0.20;;
38909;SDS011;24676;51.360;12.354;2022-10-16T11:00:41;0.10;;;0.10;;
38909;SDS011;24676;51.360;12.354;2022-10-16T11:03:41;0.10;;;0.10;;
38909;SDS011;24676;51.360;12.354;2022-10-16T11:06:57;0.15;;;0.15;;
38909;SDS011;24676;51.360;12.354;2022-10-16T11:09:50;0.28;;;0.28;;
38909;SDS011;24676;51.360;12.354;2022-10-16T11:12:44;0.55;;;0.55;;
38909;SDS011;24676;51.360;12.354;2022-10-16T11:15:35;0.22;;;0.22;;
38909;SDS011;24676;51.360;12.354;2022-10-16T11:18:25;0.38;;;0.20;;
38909;SDS011;24676;51.360;12.354;2022-10-16T11:21:17;0.32;;;0.32;;
38909;SDS011;24676;51.360;12.354;2022-10-16T11:24:13;0.55;;;0.20;;
38909;SDS011;24676;51.360;12.354;2022-10-16T11:27:15;0.47;;;0.20;;
38909;SDS011;24676;51.360;12.354;2022-10-16T11:30:04;0.13;;;0.13;;
38909;SDS011;24676;51.360;12.354;2022-10-16T11:39:00;0.20;;;0.20;;
38909;SDS011;24676;51.360;12.354;2022-10-16T11:41:48;0.28;;;0.28;;
38909;SDS011;24676;51.360;12.354;2022-10-16T11:53:46;0.28;;;0.28;;
38909;SDS011;24676;51.360;12.354;2022-10-16T11:56:37;0.30;;;0.30;;
38909;SDS011;24676;51.360;12.354;2022-10-16T11:59:38;0.20;;;0.20;;
38909;SDS011;24676;51.360;12.354;2022-10-16T12:08:41;0.25;;;0.20;;
38909;SDS011;24676;51.360;12.354;2022-10-16T12:16:59;0.13;;;0.13;;
38909;SDS011;24676;51.360;12.354;2022-10-16T12:23:04;0.20;;;0.20;;
38909;SDS011;24676;51.360;12.354;2022-10-16T12:25:54;0.30;;;0.30;;
38909;SDS011;24676;51.360;12.354;2022-10-16T12:28:40;0.10;;;0.10;;
38909;SDS011;24676;51.360;12.354;2022-10-16T12:31:25;0.20;;;0.20;;
38909;SDS011;24676;51.360;12.354;2022-10-16T12:34:23;0.38;;;0.30;;
38909;SDS011;24676;51.360;12.354;2022-10-16T12:37:20;0.10;;;0.10;;
38909;SDS011;24676;51.360;12.354;2022-10-16T12:40:14;0.22;;;0.22;;
38909;SDS011;24676;51.360;12.354;2022-10-16T12:43:23;0.30;;;0.30;;
38909;SDS011;24676;51.360;12.354;2022-10-16T12:48:52;0.22;;;0.22;;
38909;SDS011;24676;51.360;12.354;2022-10-16T12:51:37;0.10;;;0.10;;
38909;SDS011;24676;51.360;12.354;2022-10-16T12:54:37;0.00;;;0.00;;
38909;SDS011;24676;51.360;12.354;2022-10-16T13:00:21;0.10;;;0.10;;
38909;SDS011;24676;51.360;12.354;2022-10-16T13:06:30;0.20;;;0.20;;
38909;SDS011;24676;51.360;12.354;2022-10-16T13:12:45;0.00;;;0.00;;
38909;SDS011;24676;51.360;12.354;2022-10-16T13:19:10;0.32;;;0.00;;
38909;SDS011;24676;51.360;12.354;2022-10-16T13:22:19;4.20;;;0.30;;
38909;SDS011;24676;51.360;12.354;2022-10-16T13:25:13;0.20;;;0.20;;
38909;SDS011;24676;51.360;12.354;2022-10-16T13:28:22;0.10;;;0.10;;
38909;SDS011;24676;51.360;12.354;2022-10-16T13:31:22;0.08;;;0.08;;
38909;SDS011;24676;51.360;12.354;2022-10-16T13:34:11;1.75;;;0.20;;
38909;SDS011;24676;51.360;12.354;2022-10-16T13:36:59;1.15;;;0.20;;
38909;SDS011;24676;51.360;12.354;2022-10-16T13:39:43;0.30;;;0.20;;
38909;SDS011;24676;51.360;12.354;2022-10-16T13:42:27;0.10;;;0.10;;
38909;SDS011;24676;51.360;12.354;2022-10-16T13:45:24;0.17;;;0.10;;
38909;SDS011;24676;51.360;12.354;2022-10-16T13:48:09;0.00;;;0.00;;
38909;SDS011;24676;51.360;12.354;2022-10-16T13:50:58;0.25;;;0.20;;
38909;SDS011;24676;51.360;12.354;2022-10-16T13:53:44;0.05;;;0.05;;
38909;SDS011;24676;51.360;12.354;2022-10-16T13:56:30;0.15;;;0.00;;
38909;SDS011;24676;51.360;12.354;2022-10-16T13:59:25;0.10;;;0.10;;
38909;SDS011;24676;51.360;12.354;2022-10-16T14:02:25;0.17;;;0.17;;
38909;SDS011;24676;51.360;12.354;2022-10-16T14:05:14;2.88;;;1.27;;
38909;SDS011;24676;51.360;12.354;2022-10-16T14:07:59;0.10;;;0.10;;
38909;SDS011;24676;51.360;12.354;2022-10-16T14:10:47;0.10;;;0.10;;
38909;SDS011;24676;51.360;12.354;2022-10-16T14:13:43;0.17;;;0.17;;
38909;SDS011;24676;51.360;12.354;2022-10-16T14:16:30;0.55;;;0.20;;
38909;SDS011;24676;51.360;12.354;2022-10-16T14:19:20;0.17;;;0.10;;
38909;SDS011;24676;51.360;12.354;2022-10-16T14:25:27;0.10;;;0.10;;
38909;SDS011;24676;51.360;12.354;2022-10-16T14:28:17;0.20;;;0.20;;
38909;SDS011;24676;51.360;12.354;2022-10-16T14:34:03;0.80;;;0.40;;
38909;SDS011;24676;51.360;12.354;2022-10-16T14:36:47;0.28;;;0.20;;
38909;SDS011;24676;51.360;12.354;2022-10-16T14:39:32;0.83;;;0.30;;
38909;SDS011;24676;51.360;12.354;2022-10-16T14:42:17;0.10;;;0.10;;
38909;SDS011;24676;51.360;12.354;2022-10-16T14:45:07;0.20;;;0.20;;
38909;SDS011;24676;51.360;12.354;2022-10-16T14:47:55;0.13;;;0.13;;
38909;SDS011;24676;51.360;12.354;2022-10-16T14:50:47;0.20;;;0.20;;
38909;SDS011;24676;51.360;12.354;2022-10-16T14:53:32;0.35;;;0.30;;
38909;SDS011;24676;51.360;12.354;2022-10-16T14:56:17;0.35;;;0.35;;
38909;SDS011;24676;51.360;12.354;2022-10-16T14:59:03;0.10;;;0.10;;
38909;SDS011;24676;51.360;12.354;2022-10-16T15:01:48;0.45;;;0.22;;
38909;SDS011;24676;51.360;12.354;2022-10-16T15:04:32;0.08;;;0.08;;
38909;SDS011;24676;51.360;12.354;2022-10-16T15:07:17;0.30;;;0.22;;
38909;SDS011;24676;51.360;12.354;2022-10-16T15:10:02;0.35;;;0.20;;
38909;SDS011;24676;51.360;12.354;2022-10-16T15:12:46;0.40;;;0.40;;
38909;SDS011;24676;51.360;12.354;2022-10-16T15:15:35;0.13;;;0.13;;
38909;SDS011;24676;51.360;12.354;2022-10-16T15:18:21;0.30;;;0.25;;
38909;SDS011;24676;51.360;12.354;2022-10-16T15:21:06;0.40;;;0.40;;
38909;SDS011;24676;51.360;12.354;2022-10-16T15:23:50;4.13;;;0.95;;
38909;SDS011;24676;51.360;12.354;2022-10-16T15:26:34;0.35;;;0.35;;
38909;SDS011;24676;51.360;12.354;2022-10-16T15:29:21;0.57;;;0.40;;
38909;SDS011;24676;51.360;12.354;2022-10-16T15:32:09;3.65;;;0.22;;
38909;SDS011;24676;51.360;12.354;2022-10-16T15:34:54;0.65;;;0.30;;
38909;SDS011;24676;51.360;12.354;2022-10-16T15:37:38;0.82;;;0.40;;
38909;SDS011;24676;51.360;12.354;2022-10-16T15:40:22;0.13;;;0.13;;
38909;SDS011;24676;51.360;12.354;2022-10-16T15:43:07;0.10;;;0.10;;
38909;SDS011;24676;51.360;12.354;2022-10-16T15:46:04;0.20;;;0.20;;
38909;SDS011;24676;51.360;12.354;2022-10-16T15:48:50;0.43;;;0.25;;
38909;SDS011;24676;51.360;12.354;2022-10-16T15:51:39;1.15;;;1.05;;
38909;SDS011;24676;51.360;12.354;2022-10-16T15:54:24;0.28;;;0.28;;
38909;SDS011;24676;51.360;12.354;2022-10-16T15:57:08;0.45;;;0.40;;
38909;SDS011;24676;51.360;12.354;2022-10-16T15:59:53;0.55;;;0.55;;
38909;SDS011;24676;51.360;12.354;2022-10-16T16:02:38;0.82;;;0.50;;
38909;SDS011;24676;51.360;12.354;2022-10-16T16:05:22;0.47;;;0.47;;
38909;SDS011;24676;51.360;12.354;2022-10-16T16:08:07;0.60;;;0.60;;
38909;SDS011;24676;51.360;12.354;2022-10-16T16:11:08;0.32;;;0.32;;
38909;SDS011;24676;51.360;12.354;2022-10-16T16:13:57;0.65;;;0.45;;
38909;SDS011;24676;51.360;12.354;2022-10-16T16:16:41;0.88;;;0.70;;
38909;SDS011;24676;51.360;12.354;2022-10-16T16:19:26;0.17;;;0.17;;
38909;SDS011;24676;51.360;12.354;2022-10-16T16:22:13;0.57;;;0.30;;
38909;SDS011;24676;51.360;12.354;2022-10-16T16:24:57;0.75;;;0.75;;
38909;SDS011;24676;51.360;12.354;2022-10-16T16:27:42;0.55;;;0.55;;
38909;SDS011;24676;51.360;12.354;2022-10-16T16:30:26;0.95;;;0.43;;
38909;SDS011;24676;51.360;12.354;2022-10-16T16:33:11;1.23;;;0.50;;
38909;SDS011;24676;51.360;12.354;2022-10-16T16:35:58;0.38;;;0.20;;
38909;SDS011;24676;51.360;12.354;2022-10-16T16:38:44;0.40;;;0.40;;
38909;SDS011;24676;51.360;12.354;2022-10-16T16:41:29;0.93;;;0.40;;
38909;SDS011;24676;51.360;12.354;2022-10-16T16:44:14;0.32;;;0.28;;
38909;SDS011;24676;51.360;12.354;2022-10-16T16:47:00;0.60;;;0.60;;
38909;SDS011;24676;51.360;12.354;2022-10-16T16:49:44;2.60;;;0.75;;
38909;SDS011;24676;51.360;12.354;2022-10-16T16:52:29;0.57;;;0.57;;
38909;SDS011;24676;51.360;12.354;2022-10-16T16:55:14;0.28;;;0.28;;
38909;SDS011;24676;51.360;12.354;2022-10-16T16:57:58;0.47;;;0.47;;
38909;SDS011;24676;51.360;12.354;2022-10-16T17:00:47;1.17;;;0.70;;
38909;SDS011;24676;51.360;12.354;2022-10-16T17:03:31;0.50;;;0.45;;
38909;SDS011;24676;51.360;12.354;2022-10-16T17:06:18;3.58;;;0.90;;
38909;SDS011;24676;51.360;12.354;2022-10-16T17:09:05;4.20;;;2.88;;
38909;SDS011;24676;51.360;12.354;2022-10-16T17:11:51;7.40;;;4.07;;
38909;SDS011;24676;51.360;12.354;2022-10-16T17:14:35;8.30;;;4.15;;
38909;SDS011;24676;51.360;12.354;2022-10-16T17:17:19;10.13;;;3.05;;
38909;SDS011;24676;51.360;12.354;2022-10-16T17:20:03;4.85;;;2.75;;
38909;SDS011;24676;51.360;12.354;2022-10-16T17:22:48;3.83;;;1.35;;
38909;SDS011;24676;51.360;12.354;2022-10-16T17:25:34;4.50;;;2.40;;
38909;SDS011;24676;51.360;12.354;2022-10-16T17:28:19;4.20;;;2.35;;
38909;SDS011;24676;51.360;12.354;2022-10-16T17:31:07;2.92;;;1.85;;
38909;SDS011;24676;51.360;12.354;2022-10-16T17:33:51;3.35;;;1.63;;
38909;SDS011;24676;51.360;12.354;2022-10-16T17:36:36;6.47;;;3.97;;
38909;SDS011;24676;51.360;12.354;2022-10-16T17:39:21;3.80;;;2.85;;
38909;SDS011;24676;51.360;12.354;2022-10-16T17:42:05;5.82;;;3.17;;
38909;SDS011;24676;51.360;12.354;2022-10-16T17:44:49;4.43;;;2.50;;
38909;SDS011;24676;51.360;12.354;2022-10-16T17:47:33;4.15;;;2.22;;
38909;SDS011;24676;51.360;12.354;2022-10-16T17:50:18;5.45;;;2.13;;
38909;SDS011;24676;51.360;12.354;2022-10-16T17:53:02;1.98;;;1.55;;
38909;SDS011;24676;51.360;12.354;2022-10-16T17:55:46;1.80;;;1.35;;
38909;SDS011;24676;51.360;12.354;2022-10-16T17:58:31;1.30;;;1.17;;
38909;SDS011;24676;51.360;12.354;2022-10-16T18:01:17;1.60;;;1.50;;
38909;SDS011;24676;51.360;12.354;2022-10-16T18:04:03;1.73;;;1.63;;
38909;SDS011;24676;51.360;12.354;2022-10-16T18:06:53;2.92;;;1.65;;
38909;SDS011;24676;51.360;12.354;2022-10-16T18:09:40;5.80;;;1.70;;
38909;SDS011;24676;51.360;12.354;2022-10-16T18:12:24;2.95;;;1.85;;
38909;SDS011;24676;51.360;12.354;2022-10-16T18:15:08;12.05;;;3.17;;
38909;SDS011;24676;51.360;12.354;2022-10-16T18:17:53;2.63;;;1.63;;
38909;SDS011;24676;51.360;12.354;2022-10-16T18:20:38;3.13;;;2.22;;
38909;SDS011;24676;51.360;12.354;2022-10-16T18:23:22;4.03;;;1.98;;
38909;SDS011;24676;51.360;12.354;2022-10-16T18:26:07;2.50;;;1.98;;
38909;SDS011;24676;51.360;12.354;2022-10-16T18:28:54;5.13;;;2.72;;
38909;SDS011;24676;51.360;12.354;2022-10-16T18:31:39;2.50;;;1.95;;
38909;SDS011;24676;51.360;12.354;2022-10-16T18:34:24;3.25;;;2.10;;
38909;SDS011;24676;51.360;12.354;2022-10-16T18:37:10;1.98;;;1.67;;
38909;SDS011;24676;51.360;12.354;2022-10-16T18:39:55;1.70;;;1.58;;
38909;SDS011;24676;51.360;12.354;2022-10-16T18:42:39;1.63;;;1.45;;
38909;SDS011;24676;51.360;12.354;2022-10-16T18:45:23;0.70;;;0.70;;
38909;SDS011;24676;51.360;12.354;2022-10-16T18:48:07;2.97;;;1.23;;
38909;SDS011;24676;51.360;12.354;2022-10-16T18:50:51;2.28;;;1.45;;
38909;SDS011;24676;51.360;12.354;2022-10-16T18:53:36;1.63;;;1.35;;
38909;SDS011;24676;51.360;12.354;2022-10-16T18:56:22;2.00;;;1.02;;
38909;SDS011;24676;51.360;12.354;2022-10-16T18:59:07;0.68;;;0.68;;
38909;SDS011;24676;51.360;12.354;2022-10-16T19:01:51;1.05;;;0.80;;
38909;SDS011;24676;51.360;12.354;2022-10-16T19:04:36;1.30;;;1.20;;
38909;SDS011;24676;51.360;12.354;2022-10-16T19:07:20;1.45;;;1.17;;
38909;SDS011;24676;51.360;12.354;2022-10-16T19:10:04;1.20;;;0.93;;
38909;SDS011;24676;51.360;12.354;2022-10-16T19:12:48;1.08;;;0.85;;
38909;SDS011;24676;51.360;12.354;2022-10-16T19:15:33;0.65;;;0.65;;
38909;SDS011;24676;51.360;12.354;2022-10-16T19:18:17;1.63;;;1.00;;
38909;SDS011;24676;51.360;12.354;2022-10-16T19:21:03;0.60;;;0.60;;
38909;SDS011;24676;51.360;12.354;2022-10-16T19:23:52;1.98;;;1.20;;
38909;SDS011;24676;51.360;12.354;2022-10-16T19:26:37;1.88;;;1.08;;
38909;SDS011;24676;51.360;12.354;2022-10-16T19:29:21;4.15;;;1.55;;
38909;SDS011;24676;51.360;12.354;2022-10-16T19:32:05;0.93;;;0.82;;
38909;SDS011;24676;51.360;12.354;2022-10-16T19:34:50;2.63;;;1.13;;
38909;SDS011;24676;51.360;12.354;2022-10-16T19:37:34;2.05;;;0.93;;
38909;SDS011;24676;51.360;12.354;2022-10-16T19:40:19;1.02;;;0.93;;
38909;SDS011;24676;51.360;12.354;2022-10-16T19:43:03;2.75;;;0.80;;
38909;SDS011;24676;51.360;12.354;2022-10-16T19:45:47;1.10;;;0.77;;
38909;SDS011;24676;51.360;12.354;2022-10-16T19:48:31;1.27;;;1.08;;
38909;SDS011;24676;51.360;12.354;2022-10-16T19:51:17;2.80;;;1.30;;
38909;SDS011;24676;51.360;12.354;2022-10-16T19:54:06;1.45;;;1.25;;
38909;SDS011;24676;51.360;12.354;2022-10-16T19:56:54;1.10;;;1.00;;
38909;SDS011;24676;51.360;12.354;2022-10-16T19:59:41;1.25;;;0.90;;
38909;SDS011;24676;51.360;12.354;2022-10-16T20:02:26;1.17;;;1.00;;
38909;SDS011;24676;51.360;12.354;2022-10-16T20:05:10;2.20;;;1.40;;
38909;SDS011;24676;51.360;12.354;2022-10-16T20:07:54;1.75;;;1.23;;
38909;SDS011;24676;51.360;12.354;2022-10-16T20:10:39;2.90;;;0.70;;
38909;SDS011;24676;51.360;12.354;2022-10-16T20:13:34;1.27;;;0.77;;
38909;SDS011;24676;51.360;12.354;2022-10-16T20:16:18;1.23;;;1.15;;
38909;SDS011;24676;51.360;12.354;2022-10-16T20:19:03;2.47;;;0.95;;
38909;SDS011;24676;51.360;12.354;2022-10-16T20:21:47;1.15;;;0.77;;
38909;SDS011;24676;51.360;12.354;2022-10-16T20:24:31;3.22;;;1.30;;
38909;SDS011;24676;51.360;12.354;2022-10-16T20:27:15;0.82;;;0.82;;
38909;SDS011;24676;51.360;12.354;2022-10-16T20:29:59;0.45;;;0.45;;
38909;SDS011;24676;51.360;12.354;2022-10-16T20:32:43;1.45;;;0.80;;
38909;SDS011;24676;51.360;12.354;2022-10-16T20:35:29;0.57;;;0.57;;
38909;SDS011;24676;51.360;12.354;2022-10-16T20:38:18;7.32;;;1.80;;
38909;SDS011;24676;51.360;12.354;2022-10-16T20:41:02;2.08;;;1.05;;
38909;SDS011;24676;51.360;12.354;2022-10-16T20:43:47;1.65;;;1.10;;
38909;SDS011;24676;51.360;12.354;2022-10-16T20:46:33;2.75;;;1.70;;
38909;SDS011;24676;51.360;12.354;2022-10-16T20:49:16;1.58;;;0.93;;
38909;SDS011;24676;51.360;12.354;2022-10-16T20:52:00;1.20;;;0.98;;
38909;SDS011;24676;51.360;12.354;2022-10-16T20:54:45;0.77;;;0.77;;
38909;SDS011;24676;51.360;12.354;2022-10-16T20:57:29;1.23;;;1.13;;
